Time;durP1;ratioP1;P1;durP2;ratioP2;P2;SDS_P1;SDS_P2;PMS_P1;PMS_P2;Temp;Humidity;BMP_temperature;BMP_pressure;BME280_temperature;BME280_humidity;BME280_pressure;Samples;Min_cycle;Max_cycle;Signal;HPM_P1;HPM_P2
2024/04/02 00:01:08;;;;;;;7.38;1.80;;;10.10;30.30;;;;;;5075167;28;20106;-72
2024/04/02 00:03:34;;;;;;;3.60;1.80;;;10.10;31.80;;;;;;5075459;28;20039;-73
2024/04/02 00:06:00;;;;;;;3.90;1.50;;;10.00;29.40;;;;;;5075084;28;20111;-73
2024/04/02 00:08:28;;;;;;;4.38;1.48;;;10.00;29.30;;;;;;5075517;28;20501;-73
2024/04/02 00:10:59;;;;;;;2.45;1.50;;;10.00;30.10;;;;;;5075237;28;20033;-73
2024/04/02 00:13:24;;;;;;;3.38;1.60;;;9.90;36.00;;;;;;5074745;28;20091;-73
2024/04/02 00:15:50;;;;;;;3.55;1.55;;;9.80;36.70;;;;;;5074817;28;20067;-73
2024/04/02 00:18:17;;;;;;;5.93;1.55;;;9.80;42.30;;;;;;5074838;28;20044;-73
2024/04/02 00:20:42;;;;;;;4.15;1.50;;;9.70;45.60;;;;;;5074778;28;20021;-73
2024/04/02 00:23:08;;;;;;;4.32;1.42;;;9.60;49.80;;;;;;5075125;28;20119;-73
2024/04/02 00:25:35;;;;;;;4.65;1.63;;;9.60;49.90;;;;;;5074965;28;20082;-73
2024/04/02 00:28:01;;;;;;;3.05;1.48;;;9.70;55.20;;;;;;5074966;28;20482;-73
2024/04/02 00:30:28;;;;;;;5.57;1.40;;;9.50;56.10;;;;;;5075094;28;20040;-73
2024/04/02 00:32:55;;;;;;;5.15;2.13;;;9.40;58.00;;;;;;5074629;28;20091;-73
2024/04/02 00:35:20;;;;;;;1.92;1.40;;;9.50;58.50;;;;;;5074572;28;20067;-73
2024/04/02 00:37:48;;;;;;;4.68;1.50;;;9.40;65.40;;;;;;5074759;28;20017;-72
2024/04/02 00:40:14;;;;;;;5.57;1.80;;;9.30;65.80;;;;;;5074927;28;20021;-73
2024/04/02 00:42:40;;;;;;;2.78;1.52;;;9.20;70.70;;;;;;5074773;28;20021;-73
2024/04/02 00:45:06;;;;;;;3.92;1.50;;;9.30;77.60;;;;;;5074526;28;20024;-73
2024/04/02 00:47:32;;;;;;;3.90;1.40;;;9.30;77.30;;;;;;5074855;28;20043;-72
2024/04/02 00:49:59;;;;;;;2.42;1.67;;;9.30;78.80;;;;;;5075048;28;20124;-73
2024/04/02 00:52:25;;;;;;;3.95;1.30;;;9.30;79.00;;;;;;5074776;28;20025;-73
2024/04/02 00:54:51;;;;;;;2.33;1.33;;;9.20;79.40;;;;;;5074473;28;20417;-73
2024/04/02 00:57:16;;;;;;;5.50;1.30;;;9.30;83.80;;;;;;5074359;28;20031;-72
2024/04/02 00:59:42;;;;;;;5.20;1.40;;;9.30;89.10;;;;;;5073463;28;20048;-72
2024/04/02 01:02:08;;;;;;;4.88;1.30;;;9.30;84.90;;;;;;5074637;28;20029;-72
2024/04/02 01:04:34;;;;;;;3.70;1.27;;;9.30;90.70;;;;;;5074025;28;20090;-73
2024/04/02 01:07:02;;;;;;;3.53;1.60;;;9.40;82.00;;;;;;5074049;28;20067;-72
2024/04/02 01:09:29;;;;;;;4.10;1.52;;;9.40;80.40;;;;;;5074404;28;20035;-72
2024/04/02 01:11:55;;;;;;;3.95;1.30;;;9.40;82.80;;;;;;5073964;28;20543;-73
2024/04/02 01:14:21;;;;;;;2.17;1.25;;;9.40;82.50;;;;;;5073598;28;20050;-73
2024/04/02 01:16:46;;;;;;;3.72;1.20;;;9.50;78.80;;;;;;5074300;28;20020;-74
2024/04/02 01:19:12;;;;;;;3.22;1.50;;;9.60;70.80;;;;;;5073635;28;20115;-73
2024/04/02 01:21:38;;;;;;;5.70;1.60;;;9.60;73.40;;;;;;5074078;28;20048;-73
2024/04/02 01:24:04;;;;;;;1.77;1.20;;;9.60;69.50;;;;;;5073621;28;20116;-73
2024/04/02 01:26:30;;;;;;;3.47;1.30;;;9.60;64.60;;;;;;5074220;28;20501;-72
2024/04/02 01:28:58;;;;;;;3.28;1.30;;;9.60;61.00;;;;;;5073970;28;20044;-72
2024/04/02 01:31:24;;;;;;;2.17;1.30;;;9.60;60.10;;;;;;5073326;28;20402;-73
2024/04/02 01:33:50;;;;;;;2.95;1.23;;;9.60;58.00;;;;;;5073269;28;20029;-72
2024/04/02 01:36:16;;;;;;;3.20;1.50;;;9.60;57.90;;;;;;5073238;28;20031;-74
2024/04/02 01:38:41;;;;;;;3.45;1.58;;;9.60;56.20;;;;;;5073206;28;20024;-72
2024/04/02 01:41:07;;;;;;;3.10;1.15;;;9.70;54.50;;;;;;5073298;28;20027;-73
2024/04/02 01:43:32;;;;;;;4.22;1.70;;;9.70;52.10;;;;;;5073743;28;20031;-73
2024/04/02 01:45:58;;;;;;;3.97;1.25;;;9.70;48.90;;;;;;5073642;28;20470;-73
2024/04/02 01:48:23;;;;;;;2.05;1.20;;;9.70;45.10;;;;;;5073121;28;20021;-72
2024/04/02 01:50:49;;;;;;;5.50;1.48;;;9.70;43.00;;;;;;5073475;28;20028;-73
2024/04/02 01:53:14;;;;;;;3.25;1.17;;;9.70;45.40;;;;;;5073083;28;20394;-72
2024/04/02 01:55:40;;;;;;;3.70;1.35;;;9.60;46.40;;;;;;5073141;28;20058;-74
2024/04/02 01:58:05;;;;;;;4.75;1.27;;;9.50;45.60;;;;;;5073447;28;20514;-73
2024/04/02 02:00:31;;;;;;;3.80;1.38;;;9.60;40.60;;;;;;5073446;28;20471;-72
2024/04/02 02:02:56;;;;;;;4.85;1.48;;;9.50;42.30;;;;;;5073056;28;20024;-72
2024/04/02 02:05:22;;;;;;;2.88;1.00;;;9.50;47.20;;;;;;5072954;28;20040;-73
2024/04/02 02:07:47;;;;;;;4.60;1.30;;;9.50;48.10;;;;;;5072935;28;20028;-73
2024/04/02 02:10:13;;;;;;;3.63;1.00;;;9.50;45.50;;;;;;5073001;28;20217;-72
2024/04/02 02:12:39;;;;;;;4.93;1.45;;;9.40;48.90;;;;;;5073405;28;20123;-73
2024/04/02 02:15:05;;;;;;;4.07;1.40;;;9.40;51.20;;;;;;5072712;28;20144;-73
2024/04/02 02:17:31;;;;;;;2.15;1.17;;;9.40;47.60;;;;;;5072737;28;20017;-73
2024/04/02 02:19:57;;;;;;;4.32;1.10;;;9.40;51.70;;;;;;5072742;28;20016;-73
2024/04/02 02:22:22;;;;;;;7.60;1.70;;;9.40;48.20;;;;;;5073179;28;20025;-73
2024/04/02 02:24:48;;;;;;;4.07;1.60;;;9.40;47.20;;;;;;5072749;28;20021;-73
2024/04/02 02:27:13;;;;;;;3.13;1.25;;;9.50;46.40;;;;;;5072790;28;20071;-72
2024/04/02 02:29:39;;;;;;;4.45;1.65;;;9.50;46.50;;;;;;5072782;28;20497;-72
2024/04/02 02:32:04;;;;;;;4.43;1.10;;;9.50;47.20;;;;;;5072660;28;20471;-73
2024/04/02 02:34:30;;;;;;;3.00;1.42;;;9.40;45.80;;;;;;5073025;28;20033;-73
2024/04/02 02:36:55;;;;;;;3.45;1.30;;;9.40;51.00;;;;;;5073133;28;20100;-73
2024/04/02 02:39:22;;;;;;;3.88;1.20;;;9.40;51.20;;;;;;5072613;28;20048;-73
2024/04/02 02:41:48;;;;;;;3.65;1.63;;;9.50;45.10;;;;;;5072632;28;20021;-74
2024/04/02 02:44:13;;;;;;;5.15;1.45;;;9.50;43.40;;;;;;5072560;28;20025;-73
2024/04/02 02:46:39;;;;;;;5.88;1.42;;;9.50;41.40;;;;;;5073025;28;20039;-73
2024/04/02 02:49:04;;;;;;;5.10;1.50;;;9.40;47.30;;;;;;5072997;28;20085;-72
2024/04/02 02:51:30;;;;;;;3.72;1.40;;;9.30;52.90;;;;;;5072645;28;20024;-73
2024/04/02 02:53:56;;;;;;;3.75;1.20;;;9.30;51.90;;;;;;5072380;28;20053;-73
2024/04/02 02:56:23;;;;;;;3.38;1.52;;;9.30;56.70;;;;;;5072441;28;20028;-73
2024/04/02 02:58:52;;;;;;;5.93;1.50;;;9.30;57.60;;;;;;5072449;28;20501;-72
2024/04/02 03:01:18;;;;;;;3.95;1.17;;;9.20;58.80;;;;;;5072756;28;20033;-72
2024/04/02 03:03:47;;;;;;;2.78;1.25;;;9.20;60.60;;;;;;5072700;28;20367;-73
2024/04/02 03:06:13;;;;;;;2.65;1.33;;;9.20;60.50;;;;;;5072805;28;20031;-73
2024/04/02 03:08:39;;;;;;;7.13;1.88;;;9.10;59.90;;;;;;5072796;28;20412;-73
2024/04/02 03:11:06;;;;;;;5.95;1.40;;;9.20;60.70;;;;;;5072403;28;20029;-73
2024/04/02 03:13:33;;;;;;;4.03;1.30;;;9.20;60.30;;;;;;5072325;28;20036;-72
2024/04/02 03:15:59;;;;;;;3.63;1.70;;;9.20;58.80;;;;;;5072776;28;20050;-72
2024/04/02 03:18:25;;;;;;;4.82;1.52;;;9.30;56.00;;;;;;5072219;28;20027;-72
2024/04/02 03:20:51;;;;;;;3.25;1.35;;;9.20;57.20;;;;;;5072221;28;20028;-72
2024/04/02 03:23:16;;;;;;;5.82;1.75;;;9.30;57.20;;;;;;5076205;28;20036;-72
2024/04/02 03:25:50;;;;;;;3.30;1.42;;;9.30;57.90;;;;;;5076159;28;20115;-73
2024/04/02 03:28:16;;;;;;;3.60;2.10;;;9.30;56.50;;;;;;5076114;28;20020;-72
2024/04/02 03:30:41;;;;;;;3.97;1.52;;;9.30;54.00;;;;;;5076092;28;20394;-73
2024/04/02 03:33:07;;;;;;;1.85;1.30;;;9.40;53.80;;;;;;5076147;28;20028;-73
2024/04/02 03:35:36;;;;;;;4.40;1.50;;;9.30;52.40;;;;;;5075726;28;20016;-73
2024/04/02 03:38:02;;;;;;;7.03;1.33;;;9.30;54.20;;;;;;5075981;28;20029;-73
2024/04/02 03:40:29;;;;;;;2.75;1.35;;;9.40;50.40;;;;;;5075729;28;20020;-72
2024/04/02 03:42:54;;;;;;;6.97;1.20;;;9.30;54.80;;;;;;5075810;28;20063;-72
2024/04/02 03:45:21;;;;;;;2.70;1.42;;;9.40;57.10;;;;;;5075808;28;20064;-74
2024/04/02 03:47:47;;;;;;;3.15;1.50;;;9.30;54.80;;;;;;5075756;28;20047;-73
2024/04/02 03:50:12;;;;;;;6.65;1.92;;;9.40;53.70;;;;;;5075777;28;20025;-72
2024/04/02 03:52:38;;;;;;;3.30;1.30;;;9.40;50.00;;;;;;5075611;28;20067;-73
2024/04/02 03:55:04;;;;;;;10.88;1.60;;;9.40;50.70;;;;;;5075175;28;20021;-73
2024/04/02 03:57:29;;;;;;;5.95;1.33;;;9.40;47.10;;;;;;5075656;28;20036;-73
2024/04/02 03:59:55;;;;;;;3.78;1.30;;;9.40;47.60;;;;;;5075502;28;20020;-73
2024/04/02 04:02:20;;;;;;;3.13;1.45;;;9.40;46.70;;;;;;5075054;28;20500;-72
2024/04/02 04:04:47;;;;;;;6.25;1.88;;;9.30;49.20;;;;;;5075457;28;20040;-72
2024/04/02 04:07:13;;;;;;;2.88;1.40;;;9.30;52.20;;;;;;5075380;28;20042;-72
2024/04/02 04:09:39;;;;;;;3.10;1.42;;;9.20;53.20;;;;;;5075418;28;20456;-72
2024/04/02 04:12:04;;;;;;;3.95;1.50;;;9.20;54.10;;;;;;5075253;28;20032;-73
2024/04/02 04:14:30;;;;;;;4.85;1.88;;;9.20;58.40;;;;;;5074809;28;20109;-73
2024/04/02 04:16:56;;;;;;;3.42;1.40;;;9.20;57.70;;;;;;5074956;28;20071;-72
2024/04/02 04:19:21;;;;;;;3.25;1.77;;;9.20;54.10;;;;;;5075129;28;20021;-73
2024/04/02 04:21:47;;;;;;;5.32;1.40;;;9.30;52.30;;;;;;5074925;28;20089;-73
2024/04/02 04:24:12;;;;;;;3.25;1.35;;;9.20;60.60;;;;;;5074661;28;20131;-72
2024/04/02 04:26:38;;;;;;;4.97;1.92;;;9.20;59.30;;;;;;5074585;28;20073;-73
2024/04/02 04:29:03;;;;;;;7.30;1.90;;;9.30;56.70;;;;;;5074609;28;20028;-72
2024/04/02 04:31:29;;;;;;;3.33;1.40;;;9.30;55.50;;;;;;5074634;28;20025;-72
2024/04/02 04:33:54;;;;;;;6.97;1.70;;;9.30;55.60;;;;;;5074474;28;20063;-72
2024/04/02 04:36:20;;;;;;;4.15;1.67;;;9.30;55.20;;;;;;5074793;28;20041;-73
2024/04/02 04:38:45;;;;;;;3.78;1.75;;;9.40;51.90;;;;;;5074810;28;20052;-72
2024/04/02 04:41:11;;;;;;;5.18;1.30;;;9.40;53.80;;;;;;5074388;28;20028;-73
2024/04/02 04:43:36;;;;;;;9.27;1.92;;;9.30;54.70;;;;;;5074395;28;20048;-74
2024/04/02 04:46:03;;;;;;;4.70;1.48;;;9.30;54.60;;;;;;5074338;28;20056;-73
2024/04/02 04:48:30;;;;;;;7.75;1.77;;;9.40;54.00;;;;;;5074218;28;20171;-73
2024/04/02 04:51:02;;;;;;;5.38;1.70;;;9.40;52.90;;;;;;5074592;28;20474;-73
2024/04/02 04:53:28;;;;;;;5.35;1.70;;;9.40;54.30;;;;;;5074307;28;20492;-73
2024/04/02 04:55:59;;;;;;;7.03;3.38;;;9.40;52.80;;;;;;5074119;28;20031;-74
2024/04/02 04:58:26;;;;;;;8.85;3.72;;;9.40;50.30;;;;;;5074427;28;20027;-72
2024/04/02 05:00:51;;;;;;;7.55;2.17;;;9.40;49.90;;;;;;5074452;28;20381;-73
2024/04/02 05:03:17;;;;;;;5.00;2.30;;;9.40;51.70;;;;;;5073945;28;20025;-72
2024/04/02 05:05:42;;;;;;;4.15;3.00;;;9.40;49.10;;;;;;5074363;28;20482;-73
2024/04/02 05:08:25;;;;;;;3.70;1.88;;;9.40;47.60;;;;;;5073764;28;20016;-72
2024/04/02 05:10:52;;;;;;;9.57;6.53;;;9.40;50.50;;;;;;5074104;28;20032;-73
2024/04/02 05:13:18;;;;;;;9.27;3.92;;;9.40;52.40;;;;;;5073871;28;20032;-72
2024/04/02 05:15:44;;;;;;;4.70;2.75;;;9.40;48.00;;;;;;5073819;28;20036;-72
2024/04/02 05:18:11;;;;;;;17.08;11.05;;;9.50;47.10;;;;;;5074062;28;20486;-72
2024/04/02 05:20:36;;;;;;;8.85;4.55;;;9.40;49.70;;;;;;5073670;28;20054;-73
2024/04/02 05:23:04;;;;;;;8.82;5.68;;;9.40;47.80;;;;;;5073962;28;20033;-73
2024/04/02 05:25:29;;;;;;;6.28;2.63;;;9.50;51.00;;;;;;5073575;28;20111;-73
2024/04/02 05:27:55;;;;;;;12.48;5.85;;;9.50;51.80;;;;;;5073784;28;20439;-73
2024/04/02 05:30:21;;;;;;;9.13;5.85;;;9.40;52.10;;;;;;5073758;28;20033;-74
2024/04/02 05:32:46;;;;;;;9.15;5.03;;;9.50;50.00;;;;;;5073826;28;20033;-73
2024/04/02 05:35:12;;;;;;;10.57;3.63;;;9.50;50.50;;;;;;5073308;28;20063;-73
2024/04/02 05:37:38;;;;;;;3.25;2.17;;;9.50;49.30;;;;;;5073426;28;20020;-73
2024/04/02 05:40:05;;;;;;;5.55;2.30;;;9.50;47.10;;;;;;5073299;28;20462;-73
2024/04/02 05:42:31;;;;;;;6.22;2.33;;;9.50;51.00;;;;;;5073795;28;20058;-73
2024/04/02 05:44:56;;;;;;;6.53;2.58;;;9.50;44.80;;;;;;5073125;28;20031;-73
2024/04/02 05:47:22;;;;;;;5.82;1.88;;;9.60;47.70;;;;;;5073011;28;20482;-72
2024/04/02 05:49:49;;;;;;;5.28;2.15;;;9.60;49.10;;;;;;5073165;28;20436;-73
2024/04/02 05:52:15;;;;;;;5.53;2.50;;;9.60;50.60;;;;;;5072947;28;20028;-73
2024/04/02 05:54:42;;;;;;;6.47;2.22;;;9.60;52.20;;;;;;5073031;28;20031;-73
2024/04/02 05:57:07;;;;;;;4.40;2.55;;;9.70;48.50;;;;;;5073586;28;20020;-72
2024/04/02 05:59:33;;;;;;;6.57;2.08;;;9.70;48.20;;;;;;5073374;28;20055;-71
2024/04/02 06:01:59;;;;;;;6.20;2.20;;;9.70;51.30;;;;;;5073336;28;20028;-72
2024/04/02 06:04:24;;;;;;;4.80;2.08;;;9.70;48.90;;;;;;5073261;28;20036;-73
2024/04/02 06:06:50;;;;;;;5.78;2.67;;;9.70;44.80;;;;;;5081970;28;20036;-73
2024/04/02 06:09:16;;;;;;;7.72;2.55;;;9.70;48.00;;;;;;5074639;28;20047;-73
2024/04/02 06:11:42;;;;;;;6.75;2.15;;;9.70;51.80;;;;;;5070185;28;20103;-72
2024/04/02 06:14:08;;;;;;;8.00;3.30;;;9.70;49.10;;;;;;5073036;28;20033;-72
2024/04/02 06:16:34;;;;;;;5.97;2.40;;;9.80;47.40;;;;;;5079748;28;20034;-72
2024/04/02 06:18:59;;;;;;;9.18;2.42;;;9.80;44.00;;;;;;5081928;28;20036;-72
2024/04/02 06:21:25;;;;;;;6.53;2.63;;;9.80;52.50;;;;;;5072179;28;20021;-71
2024/04/02 06:23:51;;;;;;;8.20;2.55;;;9.80;47.50;;;;;;5072366;28;20501;-71
2024/04/02 06:26:17;;;;;;;7.20;2.17;;;9.80;48.00;;;;;;5069730;28;20494;-72
2024/04/02 06:28:43;;;;;;;4.00;2.53;;;9.80;49.90;;;;;;5070851;28;20025;-72
2024/04/02 06:31:09;;;;;;;6.47;2.47;;;9.70;51.10;;;;;;5071888;28;20020;-71
2024/04/02 06:33:35;;;;;;;5.20;2.63;;;9.70;54.10;;;;;;5071212;28;20021;-70
2024/04/02 06:36:00;;;;;;;9.25;3.05;;;9.70;56.60;;;;;;5072226;28;20028;-70
2024/04/02 06:38:26;;;;;;;6.93;2.35;;;9.70;62.00;;;;;;5069528;28;20028;-73
2024/04/02 06:40:52;;;;;;;5.93;2.90;;;9.70;71.40;;;;;;5063006;28;20025;-71
2024/04/02 06:43:17;;;;;;;7.15;3.08;;;9.70;79.80;;;;;;5069770;28;20110;-71
2024/04/02 06:45:54;;;;;;;9.77;3.30;;;9.60;91.60;;;;;;5071710;28;20031;-71
2024/04/02 06:48:20;;;;;;;7.15;3.00;;;9.60;95.50;;;;;;5068640;28;20489;-72
2024/04/02 06:50:45;;;;;;;12.13;3.45;;;9.60;99.90;;;;;;5079107;28;20044;-70
2024/04/02 06:53:11;;;;;;;6.63;3.10;;;9.60;99.90;;;;;;5069267;28;20074;-69
2024/04/02 06:55:36;;;;;;;9.55;3.05;;;9.50;99.90;;;;;;5074508;28;20048;-70
2024/04/02 06:58:03;;;;;;;8.05;3.47;;;9.50;99.90;;;;;;5088780;28;20028;-71
2024/04/02 07:00:29;;;;;;;9.20;3.13;;;9.40;99.90;;;;;;5082957;28;20024;-70
2024/04/02 07:02:55;;;;;;;11.00;3.67;;;9.40;99.90;;;;;;5067221;28;20020;-70
2024/04/02 07:05:20;;;;;;;5.72;3.25;;;9.40;99.90;;;;;;5076738;28;20047;-69
2024/04/02 07:07:47;;;;;;;4.57;3.45;;;9.40;99.90;;;;;;5079466;28;20051;-71
2024/04/02 07:10:12;;;;;;;13.23;3.80;;;9.40;99.90;;;;;;5081063;28;20390;-70
2024/04/02 07:12:38;;;;;;;10.27;4.05;;;9.40;99.90;;;;;;5068030;28;20039;-69
2024/04/02 07:15:06;;;;;;;6.40;3.30;;;9.50;99.90;;;;;;5076543;28;20079;-68
2024/04/02 07:17:32;;;;;;;9.77;3.50;;;9.50;99.90;;;;;;5083990;28;20074;-69
2024/04/02 07:19:58;;;;;;;6.97;3.33;;;9.40;99.90;;;;;;5082546;28;20032;-69
2024/04/02 07:22:23;;;;;;;10.05;3.20;;;9.50;99.90;;;;;;5078900;28;20040;-71
2024/04/02 07:24:49;;;;;;;9.75;3.03;;;9.50;99.90;;;;;;5083912;28;20024;-69
2024/04/02 07:27:15;;;;;;;10.63;3.70;;;9.50;99.90;;;;;;5076644;28;20398;-69
2024/04/02 07:29:41;;;;;;;7.72;3.80;;;9.60;99.90;;;;;;5083418;28;20036;-71
2024/04/02 07:32:06;;;;;;;8.00;3.08;;;9.50;99.90;;;;;;5080935;28;20024;-70
2024/04/02 07:34:32;;;;;;;7.68;3.80;;;9.60;99.90;;;;;;5078132;28;20032;-71
2024/04/02 07:36:57;;;;;;;8.18;3.13;;;9.70;99.90;;;;;;5079189;28;20073;-70
2024/04/02 07:39:23;;;;;;;5.82;3.70;;;9.70;99.90;;;;;;5083682;28;20066;-70
2024/04/02 07:41:48;;;;;;;6.00;3.22;;;9.70;99.90;;;;;;5082269;28;20031;-69
2024/04/02 07:44:14;;;;;;;11.40;3.13;;;9.70;99.90;;;;;;5081227;28;20029;-70
2024/04/02 07:46:39;;;;;;;9.65;3.40;;;9.80;99.90;;;;;;5082686;28;20025;-70
2024/04/02 07:49:05;;;;;;;9.63;3.40;;;9.80;99.90;;;;;;5080885;28;20041;-70
2024/04/02 07:51:31;;;;;;;9.35;3.35;;;10.00;99.90;;;;;;5077315;28;20379;-69
2024/04/02 07:53:56;;;;;;;12.73;3.83;;;10.10;99.90;;;;;;5080098;28;20097;-70
2024/04/02 07:56:22;;;;;;;10.70;3.55;;;10.30;99.90;;;;;;5079799;28;20021;-69
2024/04/02 07:58:47;;;;;;;8.63;3.50;;;10.80;99.90;;;;;;5076256;28;20030;-69
2024/04/02 08:01:13;;;;;;;10.85;3.60;;;10.80;80.30;;;;;;5081771;28;20550;-71
2024/04/02 08:03:38;;;;;;;15.15;3.85;;;10.80;82.10;;;;;;5078851;28;20085;-71
2024/04/02 08:06:04;;;;;;;9.82;3.30;;;10.90;64.70;;;;;;5077822;28;20028;-70
2024/04/02 08:08:29;;;;;;;8.68;3.50;;;11.10;55.70;;;;;;5074689;28;20040;-69
2024/04/02 08:10:55;;;;;;;14.90;3.60;;;11.00;40.20;;;;;;5079048;28;20542;-70
2024/04/02 08:13:21;;;;;;;13.95;3.70;;;11.20;49.80;;;;;;5069931;28;20040;-70
2024/04/02 08:15:47;;;;;;;12.55;4.00;;;11.10;39.50;;;;;;5057468;28;20072;-71
2024/04/02 08:18:12;;;;;;;11.93;2.83;;;11.20;41.80;;;;;;5077200;28;20114;-69
2024/04/02 08:20:38;;;;;;;10.93;3.65;;;11.20;19.60;;;;;;5078373;28;20449;-69
2024/04/02 08:23:06;;;;;;;14.45;3.60;;;11.20;27.00;;;;;;5080242;28;20028;-69
2024/04/02 08:25:31;;;;;;;19.70;7.05;;;11.10;16.80;;;;;;5083871;28;20044;-69
2024/04/02 08:27:57;;;;;;;13.55;4.65;;;11.10;21.10;;;;;;5084892;28;20024;-70
2024/04/02 08:30:23;;;;;;;13.88;3.63;;;11.00;11.60;;;;;;5072033;28;20035;-69
2024/04/02 08:32:48;;;;;;;13.00;3.92;;;11.00;18.50;;;;;;5075497;28;20020;-69
2024/04/02 08:35:14;;;;;;;12.10;3.33;;;11.00;1.00;;;;;;5074760;28;20024;-70
2024/04/02 08:37:39;;;;;;;35.13;18.50;;;11.10;1.00;;;;;;5076642;28;20062;-70
2024/04/02 08:40:05;;;;;;;20.02;5.75;;;11.10;1.00;;;;;;5075394;28;20021;-70
2024/04/02 08:42:33;;;;;;;21.65;8.75;;;11.10;1.00;;;;;;5079883;28;20111;-72
2024/04/02 08:45:00;;;;;;;23.73;15.57;;;11.20;1.00;;;;;;5073220;28;20024;-70
2024/04/02 08:47:26;;;;;;;13.73;7.60;;;11.10;1.00;;;;;;5077515;28;20328;-72
2024/04/02 08:49:52;;;;;;;12.32;4.30;;;11.10;1.00;;;;;;5077529;28;20025;-69
2024/04/02 08:52:18;;;;;;;13.15;3.78;;;11.10;1.00;;;;;;5081762;28;20028;-71
2024/04/02 08:54:44;;;;;;;7.65;4.00;;;11.10;1.00;;;;;;5075841;28;20394;-69
2024/04/02 08:57:10;;;;;;;12.18;3.22;;;11.20;1.00;;;;;;5077324;28;20047;-69
2024/04/02 08:59:40;;;;;;;10.25;2.92;;;11.10;1.00;;;;;;5079341;28;20474;-69
2024/04/02 09:02:09;;;;;;;12.55;3.58;;;11.00;1.00;;;;;;5071991;28;20024;-71
2024/04/02 09:04:34;;;;;;;39.90;22.73;;;10.90;1.00;;;;;;5069235;28;20029;-70
2024/04/02 09:07:00;;;;;;;15.75;7.60;;;10.70;1.00;;;;;;5070450;28;20414;-69
2024/04/02 09:09:27;;;;;;;13.38;4.28;;;10.70;10.80;;;;;;5077903;28;20031;-70
2024/04/02 09:11:53;;;;;;;11.63;5.25;;;10.50;39.10;;;;;;5079991;28;20115;-71
2024/04/02 09:14:19;;;;;;;13.93;5.45;;;10.40;53.40;;;;;;5075063;28;20128;-70
2024/04/02 09:16:46;;;;;;;12.20;5.95;;;10.40;55.20;;;;;;5081179;28;20024;-70
2024/04/02 09:19:12;;;;;;;13.60;5.40;;;10.40;64.70;;;;;;5072121;28;20025;-71
2024/04/02 09:21:37;;;;;;;13.07;3.33;;;10.40;66.60;;;;;;5060474;28;20025;-72
2024/04/02 09:24:03;;;;;;;13.05;3.38;;;10.40;56.00;;;;;;5062420;28;20092;-71
2024/04/02 09:26:29;;;;;;;11.30;3.08;;;10.50;29.20;;;;;;5073908;28;20236;-72
2024/04/02 09:28:54;;;;;;;14.00;3.17;;;10.50;21.10;;;;;;5087964;28;20031;-71
2024/04/02 09:31:21;;;;;;;15.05;3.72;;;10.40;42.30;;;;;;5082219;28;20426;-70
2024/04/02 09:33:49;;;;;;;10.98;2.75;;;10.40;23.70;;;;;;5077249;28;20033;-70
2024/04/02 09:36:40;;;;;;;11.07;3.08;;;10.40;52.10;;;;;;5081663;28;20512;-70
2024/04/02 09:39:11;;;;;;;12.63;3.50;;;10.50;39.80;;;;;;5080902;28;20112;-70
2024/04/02 09:41:40;;;;;;;12.93;3.03;;;10.50;33.50;;;;;;5076991;28;20028;-70
2024/04/02 09:44:08;;;;;;;8.75;3.13;;;10.60;9.40;;;;;;5072210;28;20036;-70
2024/04/02 09:46:35;;;;;;;10.40;3.72;;;10.70;1.00;;;;;;5076818;28;20032;-71
2024/04/02 09:49:02;;;;;;;13.32;3.38;;;10.90;1.00;;;;;;5073094;28;20110;-70
2024/04/02 09:51:29;;;;;;;14.40;3.92;;;11.00;1.00;;;;;;5081455;28;20032;-69
2024/04/02 09:53:55;;;;;;;12.65;3.05;;;11.10;1.00;;;;;;5082332;28;20017;-69
2024/04/02 09:56:23;;;;;;;8.85;3.10;;;11.40;1.00;;;;;;5078774;28;20103;-70
2024/04/02 09:58:49;;;;;;;8.93;2.88;;;11.60;1.00;;;;;;5074431;28;20031;-69
2024/04/02 10:01:20;;;;;;;9.75;3.45;;;11.60;1.00;;;;;;5073496;28;20024;-69
2024/04/02 10:03:47;;;;;;;11.10;2.72;;;11.60;1.00;;;;;;5077653;28;20048;-70
2024/04/02 10:06:14;;;;;;;12.35;3.47;;;11.50;1.00;;;;;;5078035;28;20397;-69
2024/04/02 10:08:39;;;;;;;12.30;3.25;;;11.40;1.00;;;;;;5078422;28;20033;-70
2024/04/02 10:11:09;;;;;;;18.65;3.08;;;11.30;1.00;;;;;;5073406;28;20123;-69
2024/04/02 10:13:36;;;;;;;12.20;3.33;;;11.30;1.00;;;;;;5077944;28;20053;-70
2024/04/02 10:16:07;;;;;;;11.88;3.30;;;11.30;1.00;;;;;;5073884;28;20028;-71
2024/04/02 10:18:33;;;;;;;11.85;3.20;;;11.40;1.00;;;;;;5073670;28;20040;-69
2024/04/02 10:20:59;;;;;;;11.98;5.05;;;11.40;1.00;;;;;;5078958;28;20545;-69
2024/04/02 10:23:26;;;;;;;11.57;2.78;;;11.50;99.90;;;;;;5084520;28;20067;-71
2024/04/02 10:25:52;;;;;;;11.48;2.88;;;11.60;99.90;;;;;;5085262;28;20039;-71
2024/04/02 10:28:26;;;;;;;11.02;3.42;;;11.60;99.90;;;;;;5075170;28;20474;-70
2024/04/02 10:30:51;;;;;;;;;;;11.60;99.90;;;;;;5071754;28;20027;-71
2024/04/02 10:33:18;;;;;;;9.45;3.45;;;11.70;99.90;;;;;;5087438;28;20285;-70
2024/04/02 10:35:44;;;;;;;12.48;4.20;;;11.60;99.90;;;;;;5080762;28;20029;-71
2024/04/02 10:38:10;;;;;;;11.20;3.90;;;11.60;99.90;;;;;;5081599;28;20089;-71
2024/04/02 10:40:37;;;;;;;12.70;4.28;;;11.60;99.90;;;;;;5083244;28;20056;-71
2024/04/02 10:43:03;;;;;;;19.08;5.70;;;11.50;99.90;;;;;;5076022;28;20020;-70
2024/04/02 10:45:30;;;;;;;11.82;3.88;;;11.50;99.90;;;;;;5076064;28;20064;-71
2024/04/02 10:47:56;;;;;;;12.85;3.20;;;11.40;99.90;;;;;;5089876;28;20027;-70
2024/04/02 10:50:23;;;;;;;8.63;3.25;;;11.40;99.90;;;;;;5083938;28;20109;-70
2024/04/02 10:52:49;;;;;;;15.07;3.67;;;11.50;99.90;;;;;;5086464;28;20473;-70
2024/04/02 10:55:15;;;;;;;7.47;2.58;;;11.60;99.90;;;;;;5080747;28;21823;-70
2024/04/02 10:57:41;;;;;;;12.02;3.80;;;11.60;99.90;;;;;;5075317;28;20052;-71
2024/04/02 11:00:09;;;;;;;9.77;2.92;;;11.60;99.90;;;;;;5077320;28;20036;-70
2024/04/02 11:02:36;;;;;;;9.75;3.17;;;11.50;99.90;;;;;;5076246;28;20474;-70
2024/04/02 11:05:04;;;;;;;15.45;3.88;;;11.60;99.90;;;;;;5072010;28;20447;-70
2024/04/02 11:07:30;;;;;;;14.43;2.80;;;11.60;99.90;;;;;;5076654;28;20103;-70
2024/04/02 11:09:56;;;;;;;9.32;2.78;;;11.60;99.90;;;;;;5076044;28;20447;-71
2024/04/02 11:12:23;;;;;;;10.45;3.90;;;11.60;99.90;;;;;;5075801;28;20497;-73
2024/04/02 11:14:49;;;;;;;10.43;3.03;;;11.60;99.90;;;;;;5073434;28;20725;-68
2024/04/02 11:17:15;;;;;;;8.13;1.80;;;11.70;99.90;;;;;;5082236;28;20035;-71
2024/04/02 11:19:41;;;;;;;13.77;2.90;;;11.70;99.90;;;;;;5075899;28;20052;-69
2024/04/02 11:25:00;;;;;;;9.52;2.83;;;11.70;99.90;;;;;;5080740;28;20055;-71
2024/04/02 11:27:27;;;;;;;5.20;2.28;;;11.70;99.90;;;;;;5070551;28;20068;-71
2024/04/02 11:29:53;;;;;;;8.23;3.00;;;11.60;99.90;;;;;;5074079;28;20386;-70
2024/04/02 11:32:20;;;;;;;4.35;1.80;;;11.60;99.90;;;;;;5076005;28;20082;-69
2024/04/02 11:35:14;;;;;;;12.23;2.08;;;11.60;99.90;;;;;;5072914;28;20051;-70
2024/04/02 11:37:39;;;;;;;7.65;2.38;;;11.70;99.90;;;;;;5079645;28;20066;-70
2024/04/02 11:40:06;;;;;;;7.80;2.60;;;11.90;99.90;;;;;;5079310;28;20165;-72
2024/04/02 11:42:32;;;;;;;6.65;1.58;;;12.00;99.90;;;;;;5083989;28;20024;-70
2024/04/02 11:45:00;;;;;;;9.95;2.20;;;12.20;99.90;;;;;;5085110;28;20122;-71
2024/04/02 11:47:26;;;;;;;6.47;2.00;;;12.50;99.90;;;;;;5084878;28;20051;-71
2024/04/02 11:49:52;;;;;;;4.82;1.50;;;12.70;2.70;;;;;;5075205;28;20040;-72
2024/04/02 11:52:17;;;;;;;7.63;1.95;;;12.90;99.90;;;;;;5079668;28;20036;-71
2024/04/02 11:54:44;;;;;;;4.25;1.45;;;12.90;99.90;;;;;;5081199;28;20032;-70
2024/04/02 12:00:11;;;;;;;7.55;1.90;;;12.70;1.00;;;;;;5078798;28;20016;-73
2024/04/02 12:02:39;;;;;;;6.47;2.25;;;12.70;1.00;;;;;;5069207;28;20455;-72
2024/04/02 12:05:06;;;;;;;9.18;2.75;;;12.70;1.00;;;;;;5087449;28;20103;-72
2024/04/02 12:07:31;;;;;;;6.38;1.55;;;12.80;1.00;;;;;;5069319;28;20029;-73
2024/04/02 12:09:58;;;;;;;8.85;1.60;;;12.90;99.90;;;;;;5077986;28;20046;-72
2024/04/02 12:12:25;;;;;;;8.93;1.77;;;13.00;99.90;;;;;;5087758;28;20037;-73
2024/04/02 12:14:52;;;;;;;3.63;1.60;;;13.00;54.00;;;;;;5083638;28;20131;-73
2024/04/02 12:17:17;;;;;;;7.32;1.80;;;12.80;1.00;;;;;;5066716;28;20024;-73
2024/04/02 12:19:43;;;;;;;4.88;1.77;;;12.60;99.90;;;;;;5069105;28;20501;-73
2024/04/02 12:22:11;;;;;;;6.95;2.30;;;12.90;99.90;;;;;;5073278;28;20048;-71
2024/04/02 12:24:38;;;;;;;9.32;2.65;;;13.20;1.00;;;;;;5070682;28;20035;-73
2024/04/02 12:27:04;;;;;;;6.13;1.90;;;13.30;1.00;;;;;;5070405;28;20070;-73
2024/04/02 12:29:30;;;;;;;6.60;1.67;;;13.20;1.00;;;;;;5073577;28;20111;-73
2024/04/02 12:31:57;;;;;;;6.30;2.00;;;13.30;1.00;;;;;;5065399;28;20116;-74
2024/04/02 12:34:22;;;;;;;5.82;2.40;;;13.00;99.90;;;;;;5073243;28;20029;-74
2024/04/02 12:36:49;;;;;;;8.15;2.15;;;12.90;99.90;;;;;;5071939;28;20031;-72
2024/04/02 12:39:15;;;;;;;5.03;1.58;;;12.90;99.90;;;;;;5075670;28;20032;-69
2024/04/02 12:41:41;;;;;;;9.10;1.90;;;12.90;99.90;;;;;;5076416;28;20031;-75
2024/04/02 12:44:07;;;;;;;5.35;1.80;;;12.70;1.00;;;;;;5069736;28;20035;-74
2024/04/02 12:46:33;;;;;;;5.50;2.13;;;12.60;1.00;;;;;;5065985;28;20028;-74
2024/04/02 12:49:04;;;;;;;6.78;1.80;;;12.40;1.00;;;;;;5070265;28;20053;-73
2024/04/02 12:51:30;;;;;;;8.13;2.80;;;12.10;1.00;;;;;;5072794;28;20032;-72
2024/04/02 12:53:55;;;;;;;6.00;1.88;;;12.00;1.00;;;;;;5064633;28;20398;-69